createdAt,value
2018-05-17T00:00:19.540Z,2.70
2018-05-17T00:02:47.087Z,2.63
2018-05-17T00:05:14.578Z,2.67
2018-05-17T00:07:42.096Z,2.90
2018-05-17T00:10:10.876Z,3.17
2018-05-17T00:12:38.388Z,3.30
2018-05-17T00:15:05.908Z,2.77
2018-05-17T00:17:33.407Z,3.10
2018-05-17T00:20:00.927Z,3.87
2018-05-17T00:22:28.435Z,3.90
2018-05-17T00:24:55.942Z,3.53
2018-05-17T00:27:24.232Z,3.60
2018-05-17T00:29:51.769Z,3.47
2018-05-17T00:32:19.283Z,3.80
2018-05-17T00:34:46.781Z,3.77
2018-05-17T00:37:14.312Z,8.57
2018-05-17T00:39:41.813Z,4.93
2018-05-17T00:42:09.310Z,3.83
2018-05-17T00:44:36.819Z,3.90
2018-05-17T00:47:04.791Z,3.93
2018-05-17T00:49:32.765Z,4.10
2018-05-17T00:52:00.297Z,4.03
2018-05-17T00:54:27.839Z,4.10
2018-05-17T00:56:55.343Z,4.20
2018-05-17T00:59:22.878Z,4.00
2018-05-17T01:01:57.920Z,4.70
2018-05-17T01:04:25.426Z,4.77
2018-05-17T01:06:52.928Z,4.50
2018-05-17T01:09:20.454Z,4.50
2018-05-17T01:11:47.959Z,4.07
2018-05-17T01:14:15.547Z,4.53
2018-05-17T01:16:43.056Z,4.63
2018-05-17T01:19:10.662Z,4.73
2018-05-17T01:21:38.657Z,4.93
2018-05-17T01:24:07.437Z,4.73
2018-05-17T01:26:34.930Z,4.10
2018-05-17T01:29:02.465Z,4.67
2018-05-17T01:31:30.747Z,4.20
2018-05-17T01:33:58.254Z,4.60
2018-05-17T01:36:25.773Z,4.27
2018-05-17T01:38:53.268Z,4.60
2018-05-17T01:41:20.774Z,5.07
2018-05-17T01:43:48.281Z,4.50
2018-05-17T01:46:15.784Z,4.57
2018-05-17T01:48:43.271Z,4.83
2018-05-17T01:51:11.541Z,4.77
2018-05-17T01:53:39.044Z,4.33
2018-05-17T01:56:06.605Z,4.30
2018-05-17T01:58:34.111Z,4.77
2018-05-17T02:01:01.612Z,4.57
2018-05-17T02:03:29.679Z,4.57
2018-05-17T02:05:57.216Z,4.70
2018-05-17T02:08:25.463Z,4.90
2018-05-17T02:10:52.974Z,4.70
2018-05-17T02:13:20.503Z,4.77
2018-05-17T02:15:48.005Z,4.60
2018-05-17T02:18:15.553Z,4.57
2018-05-17T02:20:43.056Z,4.10
2018-05-17T02:23:10.602Z,4.13
2018-05-17T02:25:38.111Z,4.70
2018-05-17T02:28:05.615Z,4.07
2018-05-17T02:30:33.108Z,4.67
2018-05-17T02:33:00.656Z,4.40
2018-05-17T02:35:28.143Z,4.77
2018-05-17T02:37:55.652Z,4.93
2018-05-17T02:40:23.156Z,4.83
2018-05-17T02:42:50.657Z,5.03
2018-05-17T02:45:18.199Z,4.37
2018-05-17T02:47:45.692Z,5.20
2018-05-17T02:50:14.091Z,4.50
2018-05-17T02:52:41.595Z,5.40
2018-05-17T02:55:09.100Z,5.20
2018-05-17T02:57:36.599Z,8.73
2018-05-17T03:00:05.911Z,5.00
2018-05-17T03:02:33.414Z,5.30
2018-05-17T03:05:00.919Z,5.40
2018-05-17T03:07:28.435Z,5.97
2018-05-17T03:09:55.952Z,5.53
2018-05-17T03:12:23.475Z,6.47
2018-05-17T03:14:51.040Z,5.10
2018-05-17T03:17:18.533Z,5.67
2018-05-17T03:19:46.112Z,5.50
2018-05-17T03:22:13.614Z,5.63
2018-05-17T03:24:41.126Z,6.60
2018-05-17T03:27:08.615Z,5.67
2018-05-17T03:29:36.123Z,6.13
2018-05-17T03:32:03.664Z,5.40
2018-05-17T03:34:31.167Z,5.47
2018-05-17T03:36:58.686Z,5.93
2018-05-17T03:39:26.183Z,5.83
2018-05-17T03:41:53.794Z,5.73
2018-05-17T03:44:21.287Z,5.73
2018-05-17T03:46:48.788Z,5.67
2018-05-17T03:49:16.292Z,5.07
2018-05-17T03:51:43.794Z,5.37
2018-05-17T03:54:11.307Z,5.93
2018-05-17T03:56:38.840Z,5.67
2018-05-17T03:59:06.355Z,5.53
2018-05-17T04:01:46.663Z,5.73
2018-05-17T04:04:26.032Z,5.30
2018-05-17T04:06:53.532Z,5.40
2018-05-17T04:09:21.042Z,5.87
2018-05-17T04:11:48.560Z,5.73
2018-05-17T04:14:16.086Z,5.27
2018-05-17T04:16:43.669Z,6.13
2018-05-17T04:19:11.218Z,6.03
2018-05-17T04:21:38.742Z,6.40
2018-05-17T04:24:06.257Z,6.07
2018-05-17T04:26:33.795Z,5.97
2018-05-17T04:29:01.304Z,5.80
2018-05-17T04:31:28.816Z,6.57
2018-05-17T04:33:56.329Z,6.70
2018-05-17T04:36:23.835Z,6.77
2018-05-17T04:38:51.346Z,6.70
2018-05-17T04:41:18.859Z,6.90
2018-05-17T04:43:46.372Z,7.83
2018-05-17T04:46:13.886Z,7.57
2018-05-17T04:48:41.387Z,7.30
2018-05-17T04:51:09.826Z,7.33
2018-05-17T04:53:37.395Z,6.93
2018-05-17T04:56:04.924Z,7.13
2018-05-17T04:58:32.439Z,7.77
2018-05-17T05:00:59.951Z,8.10
2018-05-17T05:03:27.455Z,7.70
2018-05-17T05:05:55.012Z,6.90
2018-05-17T05:08:22.536Z,6.33
2018-05-17T05:10:50.042Z,6.90
2018-05-17T05:13:17.546Z,6.97
2018-05-17T05:15:45.065Z,6.27
2018-05-17T05:18:12.583Z,6.57
2018-05-17T05:20:40.096Z,6.50
2018-05-17T05:23:07.608Z,6.47
2018-05-17T05:25:35.118Z,6.90
2018-05-17T05:28:02.643Z,6.67
2018-05-17T05:30:30.147Z,7.23
2018-05-17T05:32:57.653Z,6.40
2018-05-17T05:35:25.159Z,6.10
2018-05-17T05:37:52.667Z,4.80
2018-05-17T05:40:20.169Z,5.43
2018-05-17T05:42:47.668Z,6.57
2018-05-17T05:45:15.171Z,4.57
2018-05-17T05:47:42.668Z,3.57
2018-05-17T05:50:10.175Z,3.70
2018-05-17T05:52:37.691Z,3.80
2018-05-17T05:55:05.196Z,3.33
2018-05-17T05:57:32.708Z,3.70
2018-05-17T06:00:00.204Z,2.90
2018-05-17T06:02:28.674Z,3.20
2018-05-17T06:04:56.189Z,2.80
2018-05-17T06:07:23.691Z,2.63
2018-05-17T06:09:51.204Z,3.20
2018-05-17T06:12:18.699Z,3.50
2018-05-17T06:14:46.205Z,2.97
2018-05-17T06:17:13.712Z,2.60
2018-05-17T06:19:41.287Z,2.30
2018-05-17T06:22:08.859Z,2.10
2018-05-17T06:24:36.351Z,1.70
2018-05-17T06:27:03.863Z,1.83
2018-05-17T06:29:31.400Z,3.43
2018-05-17T06:31:58.905Z,1.80
2018-05-17T06:34:26.419Z,2.07
2018-05-17T06:36:53.910Z,1.70
2018-05-17T06:39:21.401Z,1.83
2018-05-17T06:41:48.913Z,1.70
2018-05-17T06:44:16.445Z,1.57
2018-05-17T06:46:43.936Z,1.70
2018-05-17T06:49:11.439Z,1.97
2018-05-17T06:51:38.959Z,2.10
2018-05-17T06:54:06.449Z,1.77
2018-05-17T06:56:34.021Z,1.53
2018-05-17T06:59:01.542Z,1.77
2018-05-17T07:01:29.045Z,2.30
2018-05-17T07:03:56.564Z,1.33
2018-05-17T07:06:24.120Z,1.73
2018-05-17T07:08:51.644Z,1.70
2018-05-17T07:11:19.202Z,1.63
2018-05-17T07:13:46.718Z,1.30
2018-05-17T07:16:14.243Z,1.80
2018-05-17T07:18:42.188Z,1.60
2018-05-17T07:21:09.338Z,1.87
2018-05-17T07:23:36.856Z,1.57
2018-05-17T07:26:04.356Z,1.60
2018-05-17T07:28:31.861Z,1.57
2018-05-17T07:30:59.474Z,1.50
2018-05-17T07:33:27.012Z,1.53
2018-05-17T07:35:54.523Z,1.53
2018-05-17T07:38:22.026Z,1.53
2018-05-17T07:40:49.603Z,1.60
2018-05-17T07:43:17.102Z,2.00
2018-05-17T07:45:44.601Z,1.97
2018-05-17T07:48:12.132Z,1.60
2018-05-17T07:50:39.670Z,1.90
2018-05-17T07:53:07.181Z,1.87
2018-05-17T07:55:34.714Z,1.70
2018-05-17T07:58:02.222Z,1.70
2018-05-17T08:00:29.837Z,2.00
2018-05-17T08:02:57.305Z,1.60
2018-05-17T08:05:24.811Z,2.00
2018-05-17T08:07:52.397Z,1.70
2018-05-17T08:10:19.936Z,2.87
2018-05-17T08:12:47.460Z,1.80
2018-05-17T08:15:14.965Z,1.83
2018-05-17T08:17:42.477Z,1.77
2018-05-17T08:20:10.081Z,1.80
2018-05-17T08:22:37.621Z,1.80
2018-05-17T08:25:05.155Z,2.17
2018-05-17T08:27:32.666Z,2.03
2018-05-17T08:30:00.234Z,1.90
2018-05-17T08:32:27.735Z,1.70
2018-05-17T08:34:55.240Z,1.50
2018-05-17T08:37:22.823Z,1.70
2018-05-17T08:39:50.300Z,2.00
2018-05-17T08:42:17.837Z,1.90
2018-05-17T08:44:46.523Z,1.80
2018-05-17T08:47:14.077Z,1.73
2018-05-17T08:49:41.614Z,1.93
2018-05-17T08:52:09.141Z,1.70
2018-05-17T08:54:36.655Z,1.60
2018-05-17T08:57:04.146Z,1.93
2018-05-17T08:59:31.643Z,2.40
2018-05-17T09:01:59.193Z,2.03
2018-05-17T09:04:26.698Z,2.43
2018-05-17T09:06:54.236Z,2.00
2018-05-17T09:09:21.732Z,2.00
2018-05-17T09:11:49.230Z,2.33
2018-05-17T09:14:16.766Z,2.30
2018-05-17T09:16:44.261Z,2.03
2018-05-17T09:19:11.794Z,2.27
2018-05-17T09:21:39.290Z,1.90
2018-05-17T09:24:06.792Z,2.50
2018-05-17T09:26:34.437Z,1.83
2018-05-17T09:29:01.984Z,2.60
2018-05-17T09:31:29.477Z,2.10
2018-05-17T09:33:56.979Z,1.97
2018-05-17T09:36:24.492Z,2.20
2018-05-17T09:38:52.040Z,2.30
2018-05-17T09:41:19.573Z,2.33
2018-05-17T09:43:47.128Z,2.77
2018-05-17T09:46:14.625Z,2.27
2018-05-17T09:48:42.127Z,2.60
2018-05-17T09:51:09.644Z,2.93
2018-05-17T09:53:37.148Z,2.43
2018-05-17T09:56:04.658Z,2.40
2018-05-17T09:58:32.221Z,2.40
2018-05-17T10:00:59.724Z,2.90
2018-05-17T10:03:27.234Z,2.33
2018-05-17T10:05:54.847Z,2.50
2018-05-17T10:08:22.355Z,2.20
2018-05-17T10:10:49.891Z,2.60
2018-05-17T10:13:17.428Z,1.80
2018-05-17T10:15:44.972Z,2.37
2018-05-17T10:18:12.506Z,2.60
2018-05-17T10:20:40.054Z,2.30
2018-05-17T10:23:07.575Z,2.47
2018-05-17T10:25:35.097Z,2.17
2018-05-17T10:28:02.612Z,2.53
2018-05-17T10:30:30.144Z,2.00
2018-05-17T10:32:57.654Z,1.90
2018-05-17T10:35:25.155Z,2.27
2018-05-17T10:37:52.696Z,1.77
2018-05-17T10:40:21.380Z,1.90
2018-05-17T10:42:48.884Z,1.90
2018-05-17T10:45:16.375Z,2.00
2018-05-17T10:47:43.939Z,2.07
2018-05-17T10:50:11.428Z,1.80
2018-05-17T10:52:38.968Z,1.83
2018-05-17T10:55:06.459Z,1.87
2018-05-17T10:57:33.957Z,1.50
2018-05-17T11:00:01.552Z,1.90
2018-05-17T11:02:29.132Z,1.73
2018-05-17T11:04:56.647Z,2.00
2018-05-17T11:07:24.155Z,2.20
2018-05-17T11:09:51.715Z,1.70
2018-05-17T11:12:19.278Z,1.60
2018-05-17T11:14:46.865Z,2.03
2018-05-17T11:17:14.395Z,2.20
2018-05-17T11:19:41.890Z,2.33
2018-05-17T11:22:09.403Z,2.00
2018-05-17T11:24:37.022Z,2.00
2018-05-17T11:27:04.533Z,1.98
2018-05-17T11:29:32.071Z,2.10
2018-05-17T11:31:59.590Z,2.05
2018-05-17T11:34:27.102Z,2.00
2018-05-17T11:36:54.669Z,1.70
2018-05-17T11:39:22.194Z,2.08
2018-05-17T11:41:49.701Z,1.92
2018-05-17T11:44:17.335Z,2.10
2018-05-17T11:46:44.864Z,1.80
2018-05-17T11:49:12.419Z,1.90
2018-05-17T11:51:39.928Z,2.00
2018-05-17T11:54:07.461Z,2.35
2018-05-17T11:56:34.973Z,2.83
2018-05-17T11:59:02.471Z,1.73
2018-05-17T12:01:30.053Z,2.00
2018-05-17T12:03:57.511Z,2.10
2018-05-17T12:06:25.027Z,1.67
2018-05-17T12:08:53.819Z,1.87
2018-05-17T12:11:21.321Z,2.17
2018-05-17T12:13:48.886Z,2.10
2018-05-17T12:16:16.376Z,2.10
2018-05-17T12:18:43.882Z,1.92
2018-05-17T12:21:11.384Z,2.05
2018-05-17T12:23:38.894Z,2.47
2018-05-17T12:26:06.402Z,2.12
2018-05-17T12:28:33.902Z,2.40
2018-05-17T12:31:01.453Z,2.30
2018-05-17T12:33:28.965Z,1.75
2018-05-17T12:35:56.470Z,1.95
2018-05-17T12:38:24.039Z,1.90
2018-05-17T12:40:51.543Z,2.00
2018-05-17T12:43:19.053Z,1.80
2018-05-17T12:45:46.535Z,1.80
2018-05-17T12:48:14.035Z,2.00
2018-05-17T12:50:42.465Z,2.10
2018-05-17T12:53:09.956Z,2.27
2018-05-17T12:55:37.464Z,1.90
2018-05-17T12:58:04.988Z,2.35
2018-05-17T13:00:32.481Z,2.05
2018-05-17T13:02:59.990Z,1.67
2018-05-17T13:05:27.499Z,1.98
2018-05-17T13:07:55.001Z,2.20
2018-05-17T13:10:22.528Z,1.65
2018-05-17T13:12:50.030Z,2.03
2018-05-17T13:15:17.577Z,2.08
2018-05-17T13:17:45.124Z,1.80
2018-05-17T13:20:12.653Z,2.00
2018-05-17T13:22:40.218Z,2.25
2018-05-17T13:25:07.726Z,2.00
2018-05-17T13:27:35.261Z,1.70
2018-05-17T13:30:03.978Z,1.75
2018-05-17T13:32:31.489Z,1.92
2018-05-17T13:34:58.988Z,1.80
2018-05-17T13:37:26.631Z,1.90
2018-05-17T13:39:54.048Z,1.62
2018-05-17T13:42:21.544Z,1.42
2018-05-17T13:44:49.100Z,1.90
2018-05-17T13:47:16.605Z,2.10
2018-05-17T13:49:44.115Z,2.00
2018-05-17T13:52:11.637Z,1.50
2018-05-17T13:54:39.167Z,1.65
2018-05-17T13:57:06.683Z,1.70
2018-05-17T13:59:34.234Z,1.55
2018-05-17T14:02:01.839Z,1.42
2018-05-17T14:04:29.286Z,1.30
2018-05-17T14:06:56.790Z,1.67
2018-05-17T14:09:24.287Z,1.80
2018-05-17T14:11:51.785Z,1.20
2018-05-17T14:14:19.336Z,1.77
2018-05-17T14:16:46.836Z,1.90
2018-05-17T14:19:14.385Z,1.40
2018-05-17T14:21:41.892Z,1.67
2018-05-17T14:24:09.434Z,1.30
2018-05-17T14:26:37.300Z,1.40
2018-05-17T14:29:04.827Z,1.30
2018-05-17T14:31:32.393Z,1.40
2018-05-17T14:33:59.898Z,1.63
2018-05-17T14:36:27.422Z,1.40
2018-05-17T14:38:54.929Z,1.53
2018-05-17T14:41:22.485Z,1.50
2018-05-17T14:43:49.995Z,1.30
2018-05-17T14:46:17.492Z,1.30
2018-05-17T14:48:45.026Z,1.13
2018-05-17T14:51:12.619Z,1.27
2018-05-17T14:53:40.137Z,1.10
2018-05-17T14:56:07.696Z,1.37
2018-05-17T14:58:35.225Z,1.30
2018-05-17T15:01:02.766Z,1.20
2018-05-17T15:03:30.284Z,1.60
2018-05-17T15:05:58.275Z,1.20
2018-05-17T15:08:25.842Z,2.00
2018-05-17T15:10:53.349Z,2.20
2018-05-17T15:13:20.866Z,1.50
2018-05-17T15:15:48.362Z,1.20
2018-05-17T15:18:15.882Z,1.10
2018-05-17T15:20:43.400Z,1.33
2018-05-17T15:23:10.905Z,1.05
2018-05-17T15:25:38.450Z,1.10
2018-05-17T15:28:05.996Z,1.10
2018-05-17T15:30:33.595Z,1.00
2018-05-17T15:33:01.128Z,1.20
2018-05-17T15:35:28.631Z,0.95
2018-05-17T15:37:56.149Z,1.02
2018-05-17T15:40:23.652Z,1.08
2018-05-17T15:42:51.212Z,1.00
2018-05-17T15:45:18.765Z,1.05
2018-05-17T15:47:46.318Z,0.88
2018-05-17T15:50:13.832Z,1.00
2018-05-17T15:52:41.351Z,1.20
2018-05-17T15:55:08.848Z,1.10
2018-05-17T15:57:36.395Z,0.90
2018-05-17T16:00:05.676Z,1.00
2018-05-17T16:02:33.184Z,1.50
2018-05-17T16:05:00.696Z,1.30
2018-05-17T16:07:28.303Z,1.13
2018-05-17T16:09:55.830Z,1.42
2018-05-17T16:12:23.342Z,1.20
2018-05-17T16:14:50.986Z,1.50
2018-05-17T16:17:18.410Z,1.62
2018-05-17T16:19:45.929Z,1.30
2018-05-17T16:22:13.453Z,1.42
2018-05-17T16:24:41.017Z,1.62
2018-05-17T16:27:08.521Z,1.43
2018-05-17T16:29:36.029Z,1.00
2018-05-17T16:32:03.599Z,1.40
2018-05-17T16:34:31.116Z,1.37
2018-05-17T16:36:58.625Z,1.33
2018-05-17T16:39:26.225Z,1.93
2018-05-17T16:41:53.725Z,1.03
2018-05-17T16:44:21.236Z,1.13
2018-05-17T16:46:48.743Z,1.63
2018-05-17T16:49:16.255Z,2.03
2018-05-17T16:51:43.795Z,1.30
2018-05-17T16:54:11.386Z,1.10
2018-05-17T16:56:38.903Z,1.50
2018-05-17T16:59:06.463Z,1.30
2018-05-17T17:01:34.001Z,1.60
2018-05-17T17:04:01.514Z,1.63
2018-05-17T17:06:29.058Z,1.50
2018-05-17T17:08:56.593Z,1.80
2018-05-17T17:11:24.185Z,1.90
2018-05-17T17:13:51.782Z,2.40
2018-05-17T17:16:19.307Z,2.23
2018-05-17T17:18:46.831Z,2.63
2018-05-17T17:21:15.133Z,1.83
2018-05-17T17:23:42.692Z,2.63
2018-05-17T17:26:10.302Z,2.70
2018-05-17T17:28:37.903Z,2.23
2018-05-17T17:31:05.443Z,2.27
2018-05-17T17:33:32.960Z,2.60
2018-05-17T17:36:00.651Z,2.40
2018-05-17T17:38:28.233Z,2.47
2018-05-17T17:40:55.770Z,3.00
2018-05-17T17:43:24.079Z,3.83
2018-05-17T17:45:51.639Z,2.50
2018-05-17T17:48:19.193Z,2.90
2018-05-17T17:50:46.738Z,3.60
2018-05-17T17:53:14.252Z,3.40
2018-05-17T17:55:41.837Z,3.10
2018-05-17T17:58:09.356Z,2.63
2018-05-17T18:00:37.628Z,3.03
2018-05-17T18:03:05.142Z,3.73
2018-05-17T18:05:32.712Z,3.30
2018-05-17T18:08:00.175Z,3.53
2018-05-17T18:10:27.735Z,2.67
2018-05-17T18:12:55.249Z,3.40
2018-05-17T18:15:22.742Z,3.93
2018-05-17T18:17:50.290Z,2.53
2018-05-17T18:20:17.820Z,3.10
2018-05-17T18:22:45.325Z,2.90
2018-05-17T18:25:12.827Z,2.93
2018-05-17T18:27:40.358Z,3.30
2018-05-17T18:30:07.867Z,2.93
2018-05-17T18:32:35.412Z,3.80
2018-05-17T18:35:02.964Z,3.07
2018-05-17T18:37:30.470Z,3.60
2018-05-17T18:39:57.978Z,4.10
2018-05-17T18:42:25.540Z,4.33
2018-05-17T18:44:53.088Z,4.13
2018-05-17T18:47:20.590Z,3.80
2018-05-17T18:49:48.884Z,5.53
2018-05-17T18:52:16.430Z,4.17
2018-05-17T18:54:43.977Z,3.57
2018-05-17T18:57:11.528Z,4.00
2018-05-17T18:59:39.040Z,9.97
2018-05-17T19:02:06.597Z,22.57
2018-05-17T19:04:34.246Z,3.67
2018-05-17T19:07:02.546Z,3.90
2018-05-17T19:09:30.923Z,3.50
2018-05-17T19:11:58.464Z,17.67
2018-05-17T19:14:25.984Z,5.97
2018-05-17T19:16:54.221Z,6.40
2018-05-17T19:19:22.487Z,14.43
2018-05-17T19:21:50.034Z,3.77
2018-05-17T19:24:19.565Z,4.50
2018-05-17T19:26:48.037Z,4.33
2018-05-17T19:29:15.667Z,3.87
2018-05-17T19:31:43.358Z,4.53
2018-05-17T19:34:10.828Z,4.00
2018-05-17T19:36:39.943Z,4.00
2018-05-17T19:39:07.520Z,3.77
2018-05-17T19:41:35.155Z,4.60
2018-05-17T19:44:02.702Z,4.03
2018-05-17T19:46:32.315Z,4.67
2018-05-17T19:49:00.862Z,4.30
2018-05-17T19:51:28.435Z,4.20
2018-05-17T19:53:55.939Z,4.37
2018-05-17T19:56:25.329Z,10.70
2018-05-17T19:58:52.846Z,11.60
2018-05-17T20:01:20.428Z,4.67
2018-05-17T20:03:48.003Z,5.33
2018-05-17T20:06:15.503Z,4.30
2018-05-17T20:08:43.004Z,4.10
2018-05-17T20:15:45.812Z,4.20
2018-05-17T20:18:13.357Z,5.23
2018-05-17T20:20:40.882Z,4.87
2018-05-17T20:23:08.506Z,14.80
2018-05-17T20:25:37.258Z,5.50
2018-05-17T20:28:04.823Z,6.23
2018-05-17T20:30:32.380Z,4.67
2018-05-17T20:33:02.908Z,4.80
2018-05-17T20:35:30.412Z,7.43
2018-05-17T20:37:58.780Z,5.90
2018-05-17T20:40:27.886Z,5.30
2018-05-17T20:42:55.436Z,5.47
2018-05-17T20:45:23.040Z,4.77
2018-05-17T20:47:50.574Z,4.93
2018-05-17T20:50:18.941Z,5.20
2018-05-17T20:52:46.477Z,4.93
2018-05-17T20:55:14.057Z,5.10
2018-05-17T20:57:41.623Z,5.10
2018-05-17T21:00:09.236Z,5.93
2018-05-17T21:02:36.748Z,5.63
2018-05-17T21:05:04.330Z,5.07
2018-05-17T21:07:32.251Z,5.80
2018-05-17T21:09:59.752Z,5.50
2018-05-17T21:12:27.334Z,5.10
2018-05-17T21:14:54.838Z,5.70
2018-05-17T21:17:22.387Z,5.90
2018-05-17T21:19:49.898Z,6.17
2018-05-17T21:22:18.362Z,6.50
2018-05-17T21:24:45.872Z,6.00
2018-05-17T21:27:13.406Z,6.20
2018-05-17T21:29:40.915Z,6.00
2018-05-17T21:32:08.522Z,6.37
2018-05-17T21:34:36.083Z,6.10
2018-05-17T21:37:03.602Z,6.63
2018-05-17T21:39:31.200Z,6.67
2018-05-17T21:41:58.664Z,6.80
2018-05-17T21:44:26.166Z,6.30
2018-05-17T21:46:53.671Z,7.20
2018-05-17T21:49:21.220Z,7.33
2018-05-17T21:51:48.763Z,7.07
2018-05-17T21:54:16.284Z,6.70
2018-05-17T21:56:43.801Z,5.80
2018-05-17T21:59:11.320Z,6.37
2018-05-17T22:01:38.822Z,6.73
2018-05-17T22:04:06.350Z,5.63
2018-05-17T22:06:33.888Z,4.57
2018-05-17T22:09:01.401Z,4.27
2018-05-17T22:11:28.908Z,3.87
2018-05-17T22:13:56.412Z,4.23
2018-05-17T22:16:23.963Z,4.00
2018-05-17T22:18:51.492Z,3.97
2018-05-17T22:21:18.991Z,3.67
2018-05-17T22:23:46.527Z,4.80
2018-05-17T22:26:14.023Z,4.67
2018-05-17T22:28:41.512Z,3.80
2018-05-17T22:31:09.011Z,4.07
2018-05-17T22:33:36.517Z,3.77
2018-05-17T22:36:04.026Z,5.57
2018-05-17T22:38:31.547Z,7.40
2018-05-17T22:40:59.050Z,4.33
2018-05-17T22:43:26.568Z,4.07
2018-05-17T22:45:54.117Z,3.90
2018-05-17T22:48:21.632Z,4.00
2018-05-17T22:50:49.155Z,3.13
2018-05-17T22:53:16.655Z,3.53
2018-05-17T22:55:44.164Z,3.37
2018-05-17T22:58:23.645Z,3.27
2018-05-17T23:00:51.183Z,3.50
2018-05-17T23:03:18.689Z,3.73
2018-05-17T23:05:46.691Z,3.60
2018-05-17T23:08:14.247Z,3.90
2018-05-17T23:10:41.763Z,3.57
2018-05-17T23:13:09.279Z,3.73
2018-05-17T23:15:36.778Z,5.13
2018-05-17T23:18:04.299Z,4.67
2018-05-17T23:20:31.794Z,5.13
2018-05-17T23:22:59.366Z,5.67
2018-05-17T23:25:26.880Z,4.27
2018-05-17T23:27:54.400Z,3.87
2018-05-17T23:30:21.951Z,4.30
2018-05-17T23:32:49.464Z,4.70
2018-05-17T23:35:17.021Z,4.87
2018-05-17T23:37:44.531Z,5.37
2018-05-17T23:40:23.950Z,5.13
2018-05-17T23:42:51.446Z,4.97
2018-05-17T23:45:18.991Z,5.47
2018-05-17T23:47:46.500Z,5.20
2018-05-17T23:50:13.999Z,5.10
2018-05-17T23:52:41.549Z,5.50
2018-05-17T23:55:09.111Z,5.00
2018-05-17T23:57:36.611Z,5.33
